createdAt,value
2018-09-12T00:00:06.576Z,6.30
2018-09-12T00:02:36.336Z,6.67
2018-09-12T00:05:06.402Z,8.40
2018-09-12T00:07:35.962Z,4.37
2018-09-12T00:10:05.841Z,4.17
2018-09-12T00:12:35.458Z,5.00
2018-09-12T00:15:05.047Z,7.40
2018-09-12T00:17:34.510Z,4.63
2018-09-12T00:20:04.148Z,5.93
2018-09-12T00:22:33.663Z,4.27
2018-09-12T00:25:03.271Z,3.80
2018-09-12T00:27:32.796Z,4.23
2018-09-12T00:30:02.315Z,4.60
2018-09-12T00:32:31.819Z,4.80
2018-09-12T00:35:01.292Z,4.40
2018-09-12T00:37:30.791Z,4.13
2018-09-12T00:40:00.337Z,3.77
2018-09-12T00:42:29.806Z,5.23
2018-09-12T00:44:59.660Z,3.80
2018-09-12T00:47:29.215Z,5.97
2018-09-12T00:49:58.822Z,6.58
2018-09-12T00:52:28.336Z,4.10
2018-09-12T00:54:57.902Z,5.37
2018-09-12T00:57:27.383Z,6.40
2018-09-12T00:59:56.865Z,4.00
2018-09-12T01:02:26.351Z,5.00
2018-09-12T01:04:55.837Z,4.87
2018-09-12T01:07:25.389Z,4.93
2018-09-12T01:09:54.883Z,5.60
2018-09-12T01:12:24.356Z,4.83
2018-09-12T01:14:53.828Z,5.33
2018-09-12T01:17:23.359Z,5.17
2018-09-12T01:19:52.871Z,4.40
2018-09-12T01:22:22.366Z,4.57
2018-09-12T01:24:51.917Z,5.50
2018-09-12T01:27:21.444Z,5.23
2018-09-12T01:29:50.974Z,4.40
2018-09-12T01:32:20.456Z,6.10
2018-09-12T01:34:49.960Z,5.67
2018-09-12T01:37:19.483Z,5.17
2018-09-12T01:39:48.991Z,5.90
2018-09-12T01:42:18.451Z,4.83
2018-09-12T01:44:47.948Z,5.40
2018-09-12T01:47:17.450Z,7.20
2018-09-12T01:49:47.008Z,5.47
2018-09-12T01:52:16.479Z,4.37
2018-09-12T01:54:45.983Z,3.83
2018-09-12T01:57:15.523Z,5.37
2018-09-12T01:59:44.999Z,7.27
2018-09-12T02:02:14.528Z,6.77
2018-09-12T02:04:44.023Z,4.43
2018-09-12T02:07:13.532Z,5.53
2018-09-12T02:09:43.047Z,5.57
2018-09-12T02:12:12.515Z,6.10
2018-09-12T02:14:42.016Z,3.80
2018-09-12T02:17:11.519Z,5.93
2018-09-12T02:19:41.036Z,4.13
2018-09-12T02:22:10.543Z,5.00
2018-09-12T02:24:40.208Z,3.70
2018-09-12T02:27:13.034Z,4.43
2018-09-12T02:29:42.527Z,4.20
2018-09-12T02:32:12.030Z,5.03
2018-09-12T02:34:41.511Z,3.87
2018-09-12T02:37:10.967Z,3.50
2018-09-12T02:39:40.467Z,4.33
2018-09-12T02:42:09.989Z,4.73
2018-09-12T02:44:39.463Z,4.40
2018-09-12T02:47:13.171Z,4.57
2018-09-12T02:49:42.695Z,5.17
2018-09-12T02:52:12.168Z,4.97
2018-09-12T02:54:41.679Z,7.03
2018-09-12T02:57:11.231Z,5.10
2018-09-12T02:59:40.731Z,4.20
2018-09-12T03:02:10.464Z,4.30
2018-09-12T03:04:40.090Z,6.83
2018-09-12T03:07:09.565Z,4.33
2018-09-12T03:09:39.081Z,5.63
2018-09-12T03:12:08.612Z,5.87
2018-09-12T03:14:38.120Z,7.73
2018-09-12T03:17:07.635Z,4.73
2018-09-12T03:19:37.107Z,6.47
2018-09-12T03:22:06.725Z,8.00
2018-09-12T03:24:36.567Z,5.43
2018-09-12T03:27:06.095Z,6.70
2018-09-12T03:29:35.627Z,5.93
2018-09-12T03:32:05.147Z,5.27
2018-09-12T03:34:34.739Z,4.50
2018-09-12T03:37:04.227Z,4.47
2018-09-12T03:39:33.707Z,4.60
2018-09-12T03:42:03.172Z,4.90
2018-09-12T03:44:32.708Z,5.90
2018-09-12T03:47:02.188Z,4.60
2018-09-12T03:49:31.675Z,4.70
2018-09-12T03:52:01.211Z,5.80
2018-09-12T03:54:30.722Z,6.03
2018-09-12T03:57:00.215Z,5.13
2018-09-12T03:59:29.767Z,6.77
2018-09-12T04:01:59.283Z,5.13
2018-09-12T04:04:28.798Z,5.50
2018-09-12T04:06:58.289Z,6.35
2018-09-12T04:09:27.764Z,11.83
2018-09-12T04:11:57.550Z,4.00
2018-09-12T04:14:27.200Z,3.50
2018-09-12T04:16:57.789Z,4.30
2018-09-12T04:19:27.703Z,6.03
2018-09-12T04:21:57.332Z,4.53
2018-09-12T04:24:26.870Z,3.67
2018-09-12T04:26:56.759Z,3.70
2018-09-12T04:29:26.505Z,5.83
2018-09-12T04:31:55.988Z,3.57
2018-09-12T04:34:25.496Z,3.27
2018-09-12T04:36:55.036Z,4.20
2018-09-12T04:39:24.561Z,5.63
2018-09-12T04:41:54.056Z,3.10
2018-09-12T04:44:23.541Z,3.37
2018-09-12T04:46:53.143Z,4.63
2018-09-12T04:49:23.198Z,3.40
2018-09-12T04:51:52.712Z,5.23
2018-09-12T04:54:22.232Z,4.47
2018-09-12T04:56:52.047Z,4.47
2018-09-12T04:59:21.741Z,4.00
2018-09-12T05:01:51.340Z,6.13
2018-09-12T05:04:20.849Z,4.83
2018-09-12T05:06:50.555Z,6.53
2018-09-12T05:09:20.101Z,5.30
2018-09-12T05:11:49.579Z,5.43
2018-09-12T05:14:19.619Z,4.73
2018-09-12T05:16:49.088Z,6.33
2018-09-12T05:19:18.611Z,7.10
2018-09-12T05:21:48.087Z,7.50
2018-09-12T05:24:17.682Z,11.33
2018-09-12T05:26:47.746Z,7.97
2018-09-12T05:29:17.267Z,8.10
2018-09-12T05:31:47.000Z,6.63
2018-09-12T05:34:16.915Z,6.50
2018-09-12T05:36:47.396Z,7.13
2018-09-12T05:39:16.903Z,5.43
2018-09-12T05:41:46.407Z,7.57
2018-09-12T05:44:16.094Z,6.67
2018-09-12T05:46:45.675Z,6.57
2018-09-12T05:49:15.234Z,5.27
2018-09-12T05:51:44.711Z,7.83
2018-09-12T05:54:14.180Z,6.10
2018-09-12T05:56:43.692Z,5.25
2018-09-12T05:59:13.174Z,6.80
2018-09-12T06:01:42.676Z,5.13
2018-09-12T06:04:12.277Z,8.13
2018-09-12T06:06:41.814Z,6.58
2018-09-12T06:09:11.655Z,6.30
2018-09-12T06:11:41.171Z,5.67
2018-09-12T06:14:10.734Z,4.87
2018-09-12T06:16:40.336Z,5.65
2018-09-12T06:19:09.874Z,5.40
2018-09-12T06:21:39.371Z,4.62
2018-09-12T06:24:09.194Z,5.10
2018-09-12T06:26:38.735Z,5.58
2018-09-12T06:29:08.628Z,7.30
2018-09-12T06:31:38.135Z,7.25
2018-09-12T06:34:07.742Z,6.30
2018-09-12T06:36:37.292Z,6.83
2018-09-12T06:39:09.936Z,6.78
2018-09-12T06:41:39.702Z,5.08
2018-09-12T06:44:09.446Z,7.30
2018-09-12T06:46:39.180Z,5.75
2018-09-12T06:49:09.199Z,4.83
2018-09-12T06:51:38.715Z,8.28
2018-09-12T06:54:08.391Z,5.03
2018-09-12T06:56:37.999Z,6.95
2018-09-12T06:59:07.560Z,11.15
2018-09-12T07:01:37.083Z,8.60
2018-09-12T07:04:06.932Z,9.40
2018-09-12T07:06:37.528Z,6.80
2018-09-12T07:09:09.331Z,9.85
2018-09-12T07:11:38.986Z,8.35
2018-09-12T07:14:08.629Z,6.75
2018-09-12T07:16:38.191Z,8.45
2018-09-12T07:19:07.795Z,8.03
2018-09-12T07:21:37.983Z,8.70
2018-09-12T07:24:08.234Z,8.98
2018-09-12T07:26:37.834Z,5.15
2018-09-12T07:29:08.031Z,8.73
2018-09-12T07:31:44.046Z,8.90
2018-09-12T07:34:13.651Z,8.95
2018-09-12T07:36:43.172Z,5.60
2018-09-12T07:39:13.984Z,5.83
2018-09-12T07:41:44.600Z,10.48
2018-09-12T07:44:14.055Z,7.20
2018-09-12T07:46:43.714Z,7.70
2018-09-12T07:49:13.251Z,7.58
2018-09-12T07:51:42.801Z,8.65
2018-09-12T07:54:12.492Z,7.20
2018-09-12T07:56:44.283Z,7.30
2018-09-12T07:59:13.890Z,8.80
2018-09-12T08:01:43.403Z,8.73
2018-09-12T08:04:12.905Z,10.28
2018-09-12T08:06:42.542Z,8.60
2018-09-12T08:09:13.328Z,9.58
2018-09-12T08:11:43.460Z,9.78
2018-09-12T08:14:13.009Z,6.50
2018-09-12T08:16:42.509Z,7.70
2018-09-12T08:19:12.416Z,10.80
2018-09-12T08:21:41.960Z,9.18
2018-09-12T08:24:11.473Z,6.97
2018-09-12T08:26:41.074Z,12.47
2018-09-12T08:29:10.928Z,9.88
2018-09-12T08:31:40.512Z,7.67
2018-09-12T08:34:10.053Z,8.83
2018-09-12T08:36:39.646Z,9.05
2018-09-12T08:39:10.073Z,7.67
2018-09-12T08:41:40.145Z,6.50
2018-09-12T08:44:10.408Z,10.05
2018-09-12T08:46:40.929Z,9.73
2018-09-12T08:49:10.992Z,8.03
2018-09-12T08:51:41.768Z,5.22
2018-09-12T08:54:11.550Z,8.15
2018-09-12T08:56:41.189Z,7.30
2018-09-12T08:59:11.234Z,10.20
2018-09-12T09:01:42.014Z,7.10
2018-09-12T09:04:13.364Z,6.60
2018-09-12T09:06:45.631Z,5.20
2018-09-12T09:09:15.806Z,6.92
2018-09-12T09:11:45.558Z,7.03
2018-09-12T09:14:15.916Z,7.30
2018-09-12T09:16:46.265Z,4.95
2018-09-12T09:19:16.383Z,6.75
2018-09-12T09:21:47.220Z,6.10
2018-09-12T09:24:17.683Z,6.30
2018-09-12T09:26:48.249Z,5.33
2018-09-12T09:29:19.059Z,8.43
2018-09-12T09:31:49.172Z,7.42
2018-09-12T09:34:18.825Z,7.83
2018-09-12T09:36:49.099Z,10.40
2018-09-12T09:39:18.967Z,10.28
2018-09-12T09:41:49.044Z,8.15
2018-09-12T09:44:20.648Z,9.13
2018-09-12T09:46:50.824Z,6.62
2018-09-12T09:49:20.824Z,9.40
2018-09-12T09:51:51.357Z,5.05
2018-09-12T09:54:22.159Z,6.78
2018-09-12T09:56:51.998Z,4.28
2018-09-12T09:59:21.648Z,4.40
2018-09-12T10:01:57.540Z,4.20
2018-09-12T10:04:32.909Z,5.58
2018-09-12T10:07:08.040Z,4.35
2018-09-12T10:09:41.008Z,6.00
2018-09-12T10:12:11.287Z,7.42
2018-09-12T10:14:41.377Z,8.25
2018-09-12T10:17:11.369Z,6.10
2018-09-12T10:19:42.486Z,6.62
2018-09-12T10:22:13.017Z,5.42
2018-09-12T10:24:42.938Z,4.75
2018-09-12T10:27:16.448Z,6.75
2018-09-12T10:29:46.404Z,6.10
2018-09-12T10:32:16.321Z,4.28
2018-09-12T10:34:46.270Z,6.72
2018-09-12T10:37:17.427Z,5.67
2018-09-12T10:39:47.762Z,6.47
2018-09-12T10:42:18.119Z,3.83
2018-09-12T10:44:48.011Z,4.00
2018-09-12T10:47:17.615Z,5.45
2018-09-12T10:49:48.991Z,6.40
2018-09-12T10:52:18.975Z,4.97
2018-09-12T10:54:49.587Z,6.50
2018-09-12T10:57:19.424Z,4.85
2018-09-12T10:59:50.955Z,5.58
2018-09-12T11:02:21.484Z,7.40
2018-09-12T11:04:51.575Z,4.42
2018-09-12T11:07:21.265Z,6.95
2018-09-12T11:09:51.861Z,4.50
2018-09-12T11:12:22.684Z,5.80
2018-09-12T11:14:52.579Z,5.35
2018-09-12T11:17:22.258Z,4.78
2018-09-12T11:19:54.064Z,6.58
2018-09-12T11:22:23.995Z,4.15
2018-09-12T11:24:54.508Z,3.87
2018-09-12T11:27:24.540Z,5.78
2018-09-12T11:29:54.180Z,5.00
2018-09-12T11:32:24.875Z,3.75
2018-09-12T11:34:55.559Z,4.92
2018-09-12T11:37:26.134Z,5.40
2018-09-12T11:39:56.464Z,4.53
2018-09-12T11:42:27.754Z,4.35
2018-09-12T11:44:58.047Z,4.28
2018-09-12T11:47:28.502Z,3.87
2018-09-12T11:50:02.323Z,3.80
2018-09-12T11:52:33.347Z,4.15
2018-09-12T11:55:03.768Z,4.50
2018-09-12T11:57:33.563Z,5.30
2018-09-12T12:00:03.347Z,3.67
2018-09-12T12:02:33.237Z,3.80
2018-09-12T12:05:03.758Z,4.00
2018-09-12T12:07:34.935Z,4.62
2018-09-12T12:10:04.883Z,8.88
2018-09-12T12:12:35.105Z,5.20
2018-09-12T12:15:05.717Z,4.00
2018-09-12T12:17:36.474Z,4.67
2018-09-12T12:20:06.631Z,3.95
2018-09-12T12:22:36.689Z,5.47
2018-09-12T12:25:06.923Z,5.33
2018-09-12T12:27:39.407Z,3.72
2018-09-12T12:30:09.756Z,4.53
2018-09-12T12:32:39.973Z,4.25
2018-09-12T12:35:10.560Z,5.47
2018-09-12T12:37:40.378Z,4.03
2018-09-12T12:40:10.332Z,6.92
2018-09-12T12:42:40.560Z,5.85
2018-09-12T12:45:12.547Z,4.03
2018-09-12T12:47:42.228Z,5.28
2018-09-12T12:50:12.347Z,3.85
2018-09-12T12:52:42.032Z,4.80
2018-09-12T12:55:12.136Z,4.40
2018-09-12T12:57:42.471Z,4.30
2018-09-12T13:00:12.800Z,5.62
2018-09-12T13:02:42.885Z,6.37
2018-09-12T13:05:13.328Z,4.62
2018-09-12T13:07:43.024Z,5.97
2018-09-12T13:10:12.997Z,4.65
2018-09-12T13:12:43.140Z,6.15
2018-09-12T13:15:13.391Z,4.20
2018-09-12T13:17:43.272Z,5.45
2018-09-12T13:20:12.876Z,4.20
2018-09-12T13:22:42.473Z,5.42
2018-09-12T13:25:12.655Z,6.00
2018-09-12T13:27:43.137Z,4.03
2018-09-12T13:30:13.269Z,5.37
2018-09-12T13:32:43.543Z,4.37
2018-09-12T13:35:14.404Z,3.75
2018-09-12T13:37:44.259Z,4.05
2018-09-12T13:40:15.151Z,5.47
2018-09-12T13:42:46.197Z,19.48
2018-09-12T13:45:16.779Z,42.65
2018-09-12T13:47:46.851Z,22.22
2018-09-12T13:50:17.901Z,18.23
2018-09-12T13:52:48.616Z,17.70
2018-09-12T13:55:18.739Z,8.98
2018-09-12T13:57:49.499Z,10.30
2018-09-12T14:00:20.327Z,9.15
2018-09-12T14:02:50.426Z,7.65
2018-09-12T14:05:21.215Z,9.78
2018-09-12T14:07:51.336Z,8.23
2018-09-12T14:10:22.072Z,10.30
2018-09-12T14:12:51.848Z,6.28
2018-09-12T14:15:21.542Z,8.08
2018-09-12T14:17:51.723Z,4.95
2018-09-12T14:20:22.810Z,6.83
2018-09-12T14:22:53.393Z,7.78
2018-09-12T14:25:33.435Z,5.83
2018-09-12T14:28:10.068Z,4.30
2018-09-12T14:30:39.771Z,3.80
2018-09-12T14:33:10.780Z,4.30
2018-09-12T14:35:40.739Z,7.70
2018-09-12T14:38:11.101Z,6.45
2018-09-12T14:40:41.626Z,6.47
2018-09-12T14:43:11.710Z,5.75
2018-09-12T14:45:42.325Z,4.15
2018-09-12T14:48:12.137Z,5.62
2018-09-12T14:50:42.080Z,5.03
2018-09-12T14:53:11.643Z,3.33
2018-09-12T14:55:41.168Z,4.37
2018-09-12T14:58:10.804Z,7.22
2018-09-12T15:00:40.688Z,21.45
2018-09-12T15:03:10.243Z,65.37
2018-09-12T15:05:39.762Z,13.05
2018-09-12T15:08:09.274Z,9.70
2018-09-12T15:10:39.068Z,12.40
2018-09-12T15:13:08.591Z,14.50
2018-09-12T15:15:38.820Z,12.10
2018-09-12T15:18:08.619Z,10.88
2018-09-12T15:20:38.161Z,9.48
2018-09-12T15:23:08.077Z,11.73
2018-09-12T15:25:37.603Z,10.95
2018-09-12T15:28:07.236Z,23.70
2018-09-12T15:30:36.764Z,11.18
2018-09-12T15:33:06.831Z,21.40
2018-09-12T15:35:36.317Z,12.25
2018-09-12T15:38:06.064Z,12.65
2018-09-12T15:40:35.623Z,10.53
2018-09-12T15:43:05.819Z,10.55
2018-09-12T15:45:35.981Z,9.53
2018-09-12T15:48:05.796Z,9.35
2018-09-12T15:50:35.884Z,6.80
2018-09-12T15:53:05.522Z,7.15
2018-09-12T15:55:35.089Z,5.55
2018-09-12T15:58:04.951Z,8.18
2018-09-12T16:00:34.772Z,6.33
2018-09-12T16:03:04.404Z,6.20
2018-09-12T16:05:33.956Z,5.75
2018-09-12T16:08:03.763Z,9.05
2018-09-12T16:10:34.420Z,9.43
2018-09-12T16:13:05.000Z,7.40
2018-09-12T16:15:34.595Z,5.20
2018-09-12T16:18:04.452Z,5.40
2018-09-12T16:20:34.088Z,9.10
2018-09-12T16:23:03.686Z,6.58
2018-09-12T16:25:33.363Z,6.72
2018-09-12T16:28:03.796Z,6.25
2018-09-12T16:30:33.360Z,4.58
2018-09-12T16:33:02.995Z,8.35
2018-09-12T16:35:32.741Z,6.75
2018-09-12T16:38:02.287Z,4.92
2018-09-12T16:40:31.803Z,4.45
2018-09-12T16:43:01.340Z,5.37
2018-09-12T16:45:30.957Z,4.37
2018-09-12T16:48:02.902Z,6.30
2018-09-12T16:50:33.458Z,4.40
2018-09-12T16:53:06.378Z,6.75
2018-09-12T16:55:35.931Z,6.35
2018-09-12T16:58:05.688Z,4.92
2018-09-12T17:00:36.438Z,9.40
2018-09-12T17:03:11.368Z,6.15
2018-09-12T17:05:41.651Z,4.20
2018-09-12T17:08:11.769Z,6.45
2018-09-12T17:10:41.992Z,5.10
2018-09-12T17:13:11.566Z,5.40
2018-09-12T17:15:42.511Z,5.75
2018-09-12T17:18:12.471Z,5.78
2018-09-12T17:20:42.332Z,6.50
2018-09-12T17:23:13.278Z,5.62
2018-09-12T17:25:44.535Z,6.72
2018-09-12T17:28:14.840Z,5.30
2018-09-12T17:30:46.139Z,6.83
2018-09-12T17:33:15.713Z,9.18
2018-09-12T17:35:45.639Z,6.70
2018-09-12T17:38:15.774Z,7.97
2018-09-12T17:40:45.361Z,8.70
2018-09-12T17:43:15.451Z,6.55
2018-09-12T17:45:47.310Z,7.78
2018-09-12T17:48:19.946Z,8.70
2018-09-12T17:50:49.848Z,9.00
2018-09-12T17:53:22.191Z,10.72
2018-09-12T17:55:52.205Z,7.37
2018-09-12T17:58:25.737Z,8.65
2018-09-12T18:00:56.680Z,8.10
2018-09-12T18:03:26.527Z,8.00
2018-09-12T18:05:56.474Z,9.10
2018-09-12T18:08:26.884Z,10.15
2018-09-12T18:10:57.285Z,12.73
2018-09-12T18:13:26.815Z,16.17
2018-09-12T18:15:56.291Z,14.07
2018-09-12T18:18:25.828Z,21.10
2018-09-12T18:20:55.439Z,12.00
2018-09-12T18:23:25.328Z,15.03
2018-09-12T18:25:54.886Z,12.33
2018-09-12T18:28:25.022Z,14.65
2018-09-12T18:30:57.403Z,10.00
2018-09-12T18:33:26.957Z,9.40
2018-09-12T18:36:00.894Z,9.58
2018-09-12T18:38:32.766Z,8.33
2018-09-12T18:41:02.511Z,17.00
2018-09-12T18:43:33.425Z,12.58
2018-09-12T18:46:04.384Z,10.38
2018-09-12T18:48:36.759Z,9.43
2018-09-12T18:51:10.327Z,8.50
2018-09-12T18:53:41.689Z,7.72
2018-09-12T18:56:11.706Z,7.08
2018-09-12T18:58:41.780Z,7.65
2018-09-12T19:01:12.559Z,9.13
2018-09-12T19:03:43.686Z,5.15
2018-09-12T19:06:14.107Z,7.25
2018-09-12T19:08:43.587Z,7.85
2018-09-12T19:11:13.134Z,9.10
2018-09-12T19:13:42.672Z,6.28
2018-09-12T19:16:14.603Z,8.88
2018-09-12T19:18:47.950Z,7.60
2018-09-12T19:21:25.730Z,8.50
2018-09-12T19:24:00.990Z,9.15
2018-09-12T19:26:35.678Z,6.42
2018-09-12T19:29:12.961Z,7.83
2018-09-12T19:31:44.527Z,10.03
2018-09-12T19:34:16.844Z,12.13
2018-09-12T19:36:48.347Z,7.75
2018-09-12T19:39:25.422Z,8.98
2018-09-12T19:41:56.062Z,9.95
2018-09-12T19:44:26.357Z,8.95
2018-09-12T19:46:57.876Z,9.73
2018-09-12T19:49:27.984Z,8.18
2018-09-12T19:51:58.266Z,11.43
2018-09-12T19:54:28.898Z,8.13
2018-09-12T19:56:59.088Z,9.33
2018-09-12T19:59:29.267Z,8.88
2018-09-12T20:01:59.470Z,8.28
2018-09-12T20:04:35.578Z,9.15
2018-09-12T20:07:08.610Z,8.53
2018-09-12T20:09:39.647Z,8.90
2018-09-12T20:12:10.135Z,8.78
2018-09-12T20:14:39.783Z,9.05
2018-09-12T20:17:11.946Z,9.00
2018-09-12T20:19:41.510Z,8.55
2018-09-12T20:22:17.720Z,9.40
2018-09-12T20:24:47.235Z,11.78
2018-09-12T20:27:16.836Z,11.57
2018-09-12T20:29:47.131Z,11.68
2018-09-12T20:35:00.814Z,9.95
2018-09-12T20:37:30.343Z,13.20
2018-09-12T20:40:00.133Z,10.70
2018-09-12T20:42:29.740Z,12.00
2018-09-12T20:44:59.293Z,13.25
2018-09-12T20:47:29.983Z,11.80
2018-09-12T20:49:59.621Z,9.95
2018-09-12T20:52:29.330Z,10.82
2018-09-12T20:54:59.531Z,11.25
2018-09-12T20:57:29.239Z,12.55
2018-09-12T21:00:01.556Z,10.58
2018-09-12T21:02:43.999Z,11.73
2018-09-12T21:05:13.569Z,11.50
2018-09-12T21:07:43.140Z,11.43
2018-09-12T21:10:12.932Z,12.68
2018-09-12T21:12:42.500Z,12.75
2018-09-12T21:15:14.798Z,12.85
2018-09-12T21:17:44.336Z,11.15
2018-09-12T21:20:19.096Z,11.12
2018-09-12T21:22:50.673Z,11.45
2018-09-12T21:25:20.191Z,11.85
2018-09-12T21:27:50.123Z,16.77
2018-09-12T21:30:19.829Z,11.90
2018-09-12T21:32:50.033Z,13.30
2018-09-12T21:35:21.499Z,12.98
2018-09-12T21:37:51.868Z,11.50
2018-09-12T21:40:21.974Z,12.23
2018-09-12T21:42:56.295Z,13.15
2018-09-12T21:45:26.688Z,11.70
2018-09-12T21:47:57.634Z,12.82
2018-09-12T21:50:30.251Z,12.37
2018-09-12T21:53:00.798Z,12.95
2018-09-12T21:55:30.667Z,13.70
2018-09-12T21:58:04.172Z,12.33
2018-09-12T22:00:34.467Z,12.40
2018-09-12T22:03:09.432Z,12.37
2018-09-12T22:05:39.932Z,11.90
2018-09-12T22:08:10.757Z,11.60
2018-09-12T22:10:42.483Z,13.00
2018-09-12T22:13:13.014Z,12.05
2018-09-12T22:15:43.696Z,11.97
2018-09-12T22:18:13.815Z,11.65
2018-09-12T22:20:44.038Z,12.90
2018-09-12T22:23:14.166Z,14.93
2018-09-12T22:25:44.844Z,11.43
2018-09-12T22:28:14.907Z,14.00
2018-09-12T22:30:45.559Z,9.55
2018-09-12T22:33:15.811Z,11.40
2018-09-12T22:35:46.524Z,12.33
2018-09-12T22:38:16.718Z,8.90
2018-09-12T22:40:47.057Z,10.10
2018-09-12T22:43:17.540Z,10.47
2018-09-12T22:45:48.207Z,12.33
2018-09-12T22:48:18.483Z,10.03
2018-09-12T22:50:49.107Z,12.05
2018-09-12T22:53:18.611Z,9.50
2018-09-12T22:55:49.039Z,8.73
2018-09-12T22:58:18.780Z,11.63
2018-09-12T23:00:49.485Z,11.18
2018-09-12T23:03:20.522Z,11.57
2018-09-12T23:05:50.538Z,9.35
2018-09-12T23:08:20.723Z,9.93
2018-09-12T23:10:50.488Z,12.80
2018-09-12T23:13:19.942Z,10.05
2018-09-12T23:15:49.227Z,12.10
2018-09-12T23:18:18.524Z,10.58
2018-09-12T23:20:48.099Z,10.85
2018-09-12T23:23:17.602Z,13.35
2018-09-12T23:25:47.348Z,10.57
2018-09-12T23:28:16.973Z,12.37
2018-09-12T23:30:45.980Z,11.50
2018-09-12T23:33:15.051Z,14.10
2018-09-12T23:35:44.526Z,15.67
2018-09-12T23:38:14.160Z,15.80
2018-09-12T23:40:43.486Z,12.33
2018-09-12T23:43:13.378Z,14.50
2018-09-12T23:45:42.763Z,14.98
2018-09-12T23:48:11.725Z,15.07
2018-09-12T23:50:41.581Z,20.40
2018-09-12T23:53:11.501Z,21.03
2018-09-12T23:55:40.503Z,14.07
2018-09-12T23:58:09.869Z,13.53
